Terminal Aerodrome Forecast
Issued by NWS Louisville, KY

Home | Current Version | Previous Version | Text Only | Print | Product List | Glossary On
Versions: 1 2 3 4 5 6 7 8 9 10 11 12 13 14 15
319
FTUS43 KLMK 240634 AAA
TAFBWG
TAF AMD
KBWG 240634Z 2407/2506 00000KT 2SM BR SKC
      TEMPO 2408/2412 1/2SM FG SCT003
     FM241300 VRB04KT P6SM SKC=

USA.gov is the U.S. government's official web portal to all federal, state and local government web resources and services.